sensor_id;sensor_type;location;lat;lon;timestamp;pressure;altitude;pressure_sealevel;temperature;humidity
55517;BME280;41724;51.176;-0.708;2023-04-25T00:02:15;101043.89;;;10.48;58.00
55517;BME280;41724;51.176;-0.708;2023-04-25T00:04:42;101046.88;;;10.73;56.83
55517;BME280;41724;51.176;-0.708;2023-04-25T00:07:10;101050.61;;;10.49;56.36
55517;BME280;41724;51.176;-0.708;2023-04-25T00:09:37;101053.84;;;10.81;58.02
55517;BME280;41724;51.176;-0.708;2023-04-25T00:12:05;101052.90;;;10.56;57.03
55517;BME280;41724;51.176;-0.708;2023-04-25T00:14:32;101052.69;;;10.87;56.85
55517;BME280;41724;51.176;-0.708;2023-04-25T00:16:59;101051.93;;;10.85;56.40
55517;BME280;41724;51.176;-0.708;2023-04-25T00:19:26;101050.59;;;10.32;57.90
55517;BME280;41724;51.176;-0.708;2023-04-25T00:21:54;101054.36;;;10.27;57.13
55517;BME280;41724;51.176;-0.708;2023-04-25T00:24:21;101055.81;;;10.43;56.28
55517;BME280;41724;51.176;-0.708;2023-04-25T00:26:48;101057.01;;;10.67;56.77
55517;BME280;41724;51.176;-0.708;2023-04-25T00:29:15;101058.77;;;10.21;55.68
55517;BME280;41724;51.176;-0.708;2023-04-25T00:31:42;101055.60;;;10.83;55.46
55517;BME280;41724;51.176;-0.708;2023-04-25T00:34:10;101053.64;;;10.29;56.61
55517;BME280;41724;51.176;-0.708;2023-04-25T00:36:37;101057.63;;;10.24;56.09
55517;BME280;41724;51.176;-0.708;2023-04-25T00:39:04;101057.77;;;10.46;55.23
55517;BME280;41724;51.176;-0.708;2023-04-25T00:41:31;101056.67;;;10.56;55.60
55517;BME280;41724;51.176;-0.708;2023-04-25T00:43:59;101057.17;;;10.16;55.97
55517;BME280;41724;51.176;-0.708;2023-04-25T00:46:27;101056.33;;;10.08;56.69
55517;BME280;41724;51.176;-0.708;2023-04-25T00:48:55;101061.13;;;9.58;56.08
55517;BME280;41724;51.176;-0.708;2023-04-25T00:51:22;101064.95;;;9.44;57.21
55517;BME280;41724;51.176;-0.708;2023-04-25T00:53:50;101066.42;;;9.20;57.26
55517;BME280;41724;51.176;-0.708;2023-04-25T00:56:18;101071.97;;;9.22;56.92
55517;BME280;41724;51.176;-0.708;2023-04-25T00:58:45;101074.84;;;9.34;55.91
55517;BME280;41724;51.176;-0.708;2023-04-25T01:01:13;101078.70;;;8.91;56.72
55517;BME280;41724;51.176;-0.708;2023-04-25T01:03:41;101078.09;;;8.79;57.47
55517;BME280;41724;51.176;-0.708;2023-04-25T01:06:09;101076.61;;;9.09;56.52
55517;BME280;41724;51.176;-0.708;2023-04-25T01:08:38;101078.22;;;8.65;56.23
55517;BME280;41724;51.176;-0.708;2023-04-25T01:11:05;101080.13;;;8.99;56.16
55517;BME280;41724;51.176;-0.708;2023-04-25T01:13:33;101086.59;;;8.16;56.70
55517;BME280;41724;51.176;-0.708;2023-04-25T01:16:01;101089.08;;;8.57;57.30
55517;BME280;41724;51.176;-0.708;2023-04-25T01:18:29;101090.36;;;8.42;57.78
55517;BME280;41724;51.176;-0.708;2023-04-25T01:21:02;101087.84;;;8.32;56.95
55517;BME280;41724;51.176;-0.708;2023-04-25T01:23:29;101087.39;;;8.17;56.22
55517;BME280;41724;51.176;-0.708;2023-04-25T01:25:56;101085.45;;;8.65;55.75
55517;BME280;41724;51.176;-0.708;2023-04-25T01:28:23;101081.23;;;8.53;57.12
55517;BME280;41724;51.176;-0.708;2023-04-25T01:30:51;101083.58;;;8.29;57.07
55517;BME280;41724;51.176;-0.708;2023-04-25T01:33:19;101087.58;;;8.01;57.17
55517;BME280;41724;51.176;-0.708;2023-04-25T01:35:47;101093.56;;;8.77;56.74
55517;BME280;41724;51.176;-0.708;2023-04-25T01:38:15;101099.30;;;8.77;56.29
55517;BME280;41724;51.176;-0.708;2023-04-25T01:40:46;101098.74;;;8.40;56.60
55517;BME280;41724;51.176;-0.708;2023-04-25T01:43:13;101106.41;;;8.45;57.41
55517;BME280;41724;51.176;-0.708;2023-04-25T01:45:41;101107.84;;;8.32;56.11
55517;BME280;41724;51.176;-0.708;2023-04-25T01:48:08;101109.94;;;8.27;55.71
55517;BME280;41724;51.176;-0.708;2023-04-25T01:50:40;101111.35;;;8.48;55.32
55517;BME280;41724;51.176;-0.708;2023-04-25T01:53:09;101115.14;;;8.60;55.72
55517;BME280;41724;51.176;-0.708;2023-04-25T01:55:36;101118.65;;;8.04;56.90
55517;BME280;41724;51.176;-0.708;2023-04-25T01:58:03;101119.25;;;7.92;56.23
55517;BME280;41724;51.176;-0.708;2023-04-25T02:00:30;101118.52;;;8.24;55.73
55517;BME280;41724;51.176;-0.708;2023-04-25T02:02:58;101114.07;;;7.95;56.50
55517;BME280;41724;51.176;-0.708;2023-04-25T02:05:25;101113.37;;;8.23;56.07
55517;BME280;41724;51.176;-0.708;2023-04-25T02:07:52;101114.75;;;8.51;55.95
55517;BME280;41724;51.176;-0.708;2023-04-25T02:10:20;101117.24;;;8.48;56.70
55517;BME280;41724;51.176;-0.708;2023-04-25T02:12:47;101121.12;;;7.92;55.79
55517;BME280;41724;51.176;-0.708;2023-04-25T02:15:14;101128.91;;;8.28;55.97
55517;BME280;41724;51.176;-0.708;2023-04-25T02:17:41;101132.00;;;8.30;56.04
55517;BME280;41724;51.176;-0.708;2023-04-25T02:20:09;101130.82;;;7.96;56.77
55517;BME280;41724;51.176;-0.708;2023-04-25T02:22:36;101128.90;;;8.21;56.48
55517;BME280;41724;51.176;-0.708;2023-04-25T02:25:04;101130.35;;;7.78;55.85
55517;BME280;41724;51.176;-0.708;2023-04-25T02:27:31;101129.44;;;7.66;55.41
55517;BME280;41724;51.176;-0.708;2023-04-25T02:29:59;101133.45;;;8.03;54.76
55517;BME280;41724;51.176;-0.708;2023-04-25T02:32:26;101134.95;;;8.01;56.23
55517;BME280;41724;51.176;-0.708;2023-04-25T02:34:53;101134.59;;;7.79;56.20
55517;BME280;41724;51.176;-0.708;2023-04-25T02:37:21;101136.30;;;7.98;56.48
55517;BME280;41724;51.176;-0.708;2023-04-25T02:39:48;101130.95;;;7.48;56.19
55517;BME280;41724;51.176;-0.708;2023-04-25T02:42:15;101132.83;;;7.94;56.44
55517;BME280;41724;51.176;-0.708;2023-04-25T02:44:42;101136.61;;;7.82;56.90
55517;BME280;41724;51.176;-0.708;2023-04-25T02:47:09;101142.52;;;7.77;56.70
55517;BME280;41724;51.176;-0.708;2023-04-25T02:49:37;101144.58;;;7.67;56.93
55517;BME280;41724;51.176;-0.708;2023-04-25T02:52:04;101144.56;;;7.45;57.22
55517;BME280;41724;51.176;-0.708;2023-04-25T02:54:31;101145.45;;;6.94;57.02
55517;BME280;41724;51.176;-0.708;2023-04-25T02:56:59;101145.39;;;7.83;56.79
55517;BME280;41724;51.176;-0.708;2023-04-25T02:59:26;101144.13;;;7.59;56.91
55517;BME280;41724;51.176;-0.708;2023-04-25T03:01:53;101142.21;;;7.43;56.82
55517;BME280;41724;51.176;-0.708;2023-04-25T03:04:21;101141.98;;;7.43;57.26
55517;BME280;41724;51.176;-0.708;2023-04-25T03:06:48;101141.29;;;7.52;56.05
55517;BME280;41724;51.176;-0.708;2023-04-25T03:09:15;101143.39;;;6.98;57.19
55517;BME280;41724;51.176;-0.708;2023-04-25T03:11:43;101146.62;;;6.99;57.58
55517;BME280;41724;51.176;-0.708;2023-04-25T03:14:11;101147.27;;;7.21;57.14
55517;BME280;41724;51.176;-0.708;2023-04-25T03:16:39;101148.34;;;7.31;56.71
55517;BME280;41724;51.176;-0.708;2023-04-25T03:19:06;101149.96;;;7.33;57.13
55517;BME280;41724;51.176;-0.708;2023-04-25T03:21:34;101156.17;;;7.23;57.36
55517;BME280;41724;51.176;-0.708;2023-04-25T03:24:02;101160.10;;;6.92;57.37
55517;BME280;41724;51.176;-0.708;2023-04-25T03:26:30;101155.77;;;7.28;56.54
55517;BME280;41724;51.176;-0.708;2023-04-25T03:28:57;101162.14;;;6.97;57.06
55517;BME280;41724;51.176;-0.708;2023-04-25T03:31:24;101163.19;;;6.71;56.60
55517;BME280;41724;51.176;-0.708;2023-04-25T03:33:52;101166.22;;;6.56;56.85
55517;BME280;41724;51.176;-0.708;2023-04-25T03:36:19;101170.35;;;6.76;57.72
55517;BME280;41724;51.176;-0.708;2023-04-25T03:38:46;101176.94;;;6.75;57.80
55517;BME280;41724;51.176;-0.708;2023-04-25T03:41:13;101175.78;;;6.59;57.48
55517;BME280;41724;51.176;-0.708;2023-04-25T03:43:41;101186.35;;;6.25;58.04
55517;BME280;41724;51.176;-0.708;2023-04-25T03:46:08;101189.20;;;6.34;57.59
55517;BME280;41724;51.176;-0.708;2023-04-25T03:48:35;101191.43;;;6.36;58.03
55517;BME280;41724;51.176;-0.708;2023-04-25T03:51:03;101197.03;;;5.82;58.47
55517;BME280;41724;51.176;-0.708;2023-04-25T03:53:30;101195.62;;;6.21;57.70
55517;BME280;41724;51.176;-0.708;2023-04-25T03:55:58;101194.91;;;6.15;58.85
55517;BME280;41724;51.176;-0.708;2023-04-25T03:58:25;101195.47;;;5.61;58.44
55517;BME280;41724;51.176;-0.708;2023-04-25T04:00:52;101195.82;;;5.73;57.78
55517;BME280;41724;51.176;-0.708;2023-04-25T04:03:19;101198.73;;;5.92;56.98
55517;BME280;41724;51.176;-0.708;2023-04-25T04:05:47;101201.79;;;5.76;57.51
55517;BME280;41724;51.176;-0.708;2023-04-25T04:08:14;101201.48;;;5.78;57.03
55517;BME280;41724;51.176;-0.708;2023-04-25T04:10:41;101203.69;;;5.82;56.26
55517;BME280;41724;51.176;-0.708;2023-04-25T04:13:08;101204.99;;;6.15;55.16
55517;BME280;41724;51.176;-0.708;2023-04-25T04:15:36;101212.59;;;5.83;56.10
55517;BME280;41724;51.176;-0.708;2023-04-25T04:18:03;101221.26;;;5.78;56.10
55517;BME280;41724;51.176;-0.708;2023-04-25T04:20:31;101230.24;;;5.64;55.91
55517;BME280;41724;51.176;-0.708;2023-04-25T04:22:58;101241.86;;;5.74;56.10
55517;BME280;41724;51.176;-0.708;2023-04-25T04:25:25;101246.93;;;5.68;55.70
55517;BME280;41724;51.176;-0.708;2023-04-25T04:27:53;101244.16;;;5.32;56.61
55517;BME280;41724;51.176;-0.708;2023-04-25T04:30:21;101243.58;;;5.44;56.91
55517;BME280;41724;51.176;-0.708;2023-04-25T04:32:48;101245.88;;;5.14;56.40
55517;BME280;41724;51.176;-0.708;2023-04-25T04:35:15;101246.89;;;5.47;56.70
55517;BME280;41724;51.176;-0.708;2023-04-25T04:37:43;101247.77;;;5.25;56.55
55517;BME280;41724;51.176;-0.708;2023-04-25T04:40:10;101250.24;;;5.33;55.50
55517;BME280;41724;51.176;-0.708;2023-04-25T04:42:38;101255.73;;;5.43;56.71
55517;BME280;41724;51.176;-0.708;2023-04-25T04:45:05;101261.48;;;4.87;56.99
55517;BME280;41724;51.176;-0.708;2023-04-25T04:47:33;101263.69;;;5.21;57.06
55517;BME280;41724;51.176;-0.708;2023-04-25T04:50:00;101267.85;;;4.84;57.18
55517;BME280;41724;51.176;-0.708;2023-04-25T04:52:27;101261.27;;;4.73;58.15
55517;BME280;41724;51.176;-0.708;2023-04-25T04:54:54;101264.29;;;4.94;58.49
55517;BME280;41724;51.176;-0.708;2023-04-25T04:57:22;101269.39;;;4.99;57.07
55517;BME280;41724;51.176;-0.708;2023-04-25T04:59:49;101266.09;;;4.96;57.08
55517;BME280;41724;51.176;-0.708;2023-04-25T05:02:17;101270.80;;;4.80;57.05
55517;BME280;41724;51.176;-0.708;2023-04-25T05:04:43;101279.91;;;5.16;57.28
55517;BME280;41724;51.176;-0.708;2023-04-25T05:07:11;101281.58;;;4.96;56.64
55517;BME280;41724;51.176;-0.708;2023-04-25T05:09:38;101282.42;;;4.97;55.75
55517;BME280;41724;51.176;-0.708;2023-04-25T05:12:06;101282.62;;;5.16;56.30
55517;BME280;41724;51.176;-0.708;2023-04-25T05:14:34;101289.97;;;4.98;56.76
55517;BME280;41724;51.176;-0.708;2023-04-25T05:17:01;101292.40;;;4.98;56.24
55517;BME280;41724;51.176;-0.708;2023-04-25T05:19:29;101301.82;;;5.15;56.40
55517;BME280;41724;51.176;-0.708;2023-04-25T05:21:56;101307.59;;;5.36;56.37
55517;BME280;41724;51.176;-0.708;2023-04-25T05:24:23;101309.33;;;5.32;55.61
55517;BME280;41724;51.176;-0.708;2023-04-25T05:26:51;101313.86;;;5.30;56.15
55517;BME280;41724;51.176;-0.708;2023-04-25T05:29:18;101320.29;;;5.24;56.23
55517;BME280;41724;51.176;-0.708;2023-04-25T05:31:45;101325.67;;;4.62;58.28
55517;BME280;41724;51.176;-0.708;2023-04-25T05:34:12;101324.28;;;4.80;58.07
55517;BME280;41724;51.176;-0.708;2023-04-25T05:36:40;101327.58;;;5.00;57.28
55517;BME280;41724;51.176;-0.708;2023-04-25T05:39:07;101333.62;;;4.90;57.30
55517;BME280;41724;51.176;-0.708;2023-04-25T05:41:34;101329.63;;;5.07;56.97
55517;BME280;41724;51.176;-0.708;2023-04-25T05:44:01;101330.05;;;5.13;56.96
55517;BME280;41724;51.176;-0.708;2023-04-25T05:46:28;101330.20;;;5.27;56.62
55517;BME280;41724;51.176;-0.708;2023-04-25T05:48:55;101329.64;;;5.09;56.65
55517;BME280;41724;51.176;-0.708;2023-04-25T05:51:23;101334.54;;;5.33;56.90
55517;BME280;41724;51.176;-0.708;2023-04-25T05:53:50;101333.40;;;5.28;57.15
55517;BME280;41724;51.176;-0.708;2023-04-25T05:56:17;101335.95;;;5.56;56.47
55517;BME280;41724;51.176;-0.708;2023-04-25T05:58:44;101337.23;;;5.57;57.08
55517;BME280;41724;51.176;-0.708;2023-04-25T06:01:12;101345.65;;;5.62;57.17
55517;BME280;41724;51.176;-0.708;2023-04-25T06:03:39;101348.24;;;4.74;59.18
55517;BME280;41724;51.176;-0.708;2023-04-25T06:06:06;101349.25;;;4.98;59.98
55517;BME280;41724;51.176;-0.708;2023-04-25T06:08:34;101346.67;;;5.61;57.56
55517;BME280;41724;51.176;-0.708;2023-04-25T06:11:01;101347.85;;;5.85;57.64
55517;BME280;41724;51.176;-0.708;2023-04-25T06:13:28;101347.20;;;5.91;57.94
55517;BME280;41724;51.176;-0.708;2023-04-25T06:15:55;101348.49;;;5.74;57.62
55517;BME280;41724;51.176;-0.708;2023-04-25T06:18:23;101352.33;;;6.00;57.70
55517;BME280;41724;51.176;-0.708;2023-04-25T06:20:49;101356.03;;;6.10;57.45
55517;BME280;41724;51.176;-0.708;2023-04-25T06:23:17;101353.23;;;5.83;57.67
55517;BME280;41724;51.176;-0.708;2023-04-25T06:25:44;101349.18;;;5.85;58.70
55517;BME280;41724;51.176;-0.708;2023-04-25T06:28:11;101350.00;;;6.02;58.45
55517;BME280;41724;51.176;-0.708;2023-04-25T06:30:38;101347.80;;;6.17;58.80
55517;BME280;41724;51.176;-0.708;2023-04-25T06:33:06;101342.42;;;6.38;58.44
55517;BME280;41724;51.176;-0.708;2023-04-25T06:35:33;101340.36;;;6.52;58.75
55517;BME280;41724;51.176;-0.708;2023-04-25T06:38:00;101338.41;;;7.04;58.02
55517;BME280;41724;51.176;-0.708;2023-04-25T06:40:28;101346.59;;;6.77;58.57
55517;BME280;41724;51.176;-0.708;2023-04-25T06:42:55;101347.67;;;6.58;57.45
55517;BME280;41724;51.176;-0.708;2023-04-25T06:45:22;101347.47;;;7.25;56.82
55517;BME280;41724;51.176;-0.708;2023-04-25T06:47:49;101351.77;;;6.89;57.33
55517;BME280;41724;51.176;-0.708;2023-04-25T06:50:17;101362.89;;;6.87;55.81
55517;BME280;41724;51.176;-0.708;2023-04-25T06:52:44;101370.87;;;7.19;55.43
55517;BME280;41724;51.176;-0.708;2023-04-25T06:55:11;101374.92;;;7.15;57.28
55517;BME280;41724;51.176;-0.708;2023-04-25T06:57:38;101377.23;;;6.99;55.14
55517;BME280;41724;51.176;-0.708;2023-04-25T07:00:07;101376.41;;;7.58;55.80
55517;BME280;41724;51.176;-0.708;2023-04-25T07:02:34;101373.27;;;7.42;55.28
55517;BME280;41724;51.176;-0.708;2023-04-25T07:05:01;101378.92;;;7.57;54.38
55517;BME280;41724;51.176;-0.708;2023-04-25T07:07:27;101379.14;;;7.22;56.20
55517;BME280;41724;51.176;-0.708;2023-04-25T07:09:55;101373.96;;;7.58;55.53
55517;BME280;41724;51.176;-0.708;2023-04-25T07:12:22;101371.14;;;7.61;55.42
55517;BME280;41724;51.176;-0.708;2023-04-25T07:14:49;101373.70;;;7.50;56.51
55517;BME280;41724;51.176;-0.708;2023-04-25T07:17:16;101371.03;;;6.76;57.38
55517;BME280;41724;51.176;-0.708;2023-04-25T07:19:43;101377.50;;;7.21;56.96
55517;BME280;41724;51.176;-0.708;2023-04-25T07:22:11;101378.63;;;7.63;57.33
55517;BME280;41724;51.176;-0.708;2023-04-25T07:24:38;101383.25;;;7.76;56.42
55517;BME280;41724;51.176;-0.708;2023-04-25T07:27:05;101381.96;;;7.77;56.62
55517;BME280;41724;51.176;-0.708;2023-04-25T07:29:33;101380.20;;;7.56;57.06
55517;BME280;41724;51.176;-0.708;2023-04-25T07:32:00;101378.06;;;8.17;55.86
55517;BME280;41724;51.176;-0.708;2023-04-25T07:34:27;101382.74;;;8.41;54.78
55517;BME280;41724;51.176;-0.708;2023-04-25T07:36:54;101385.04;;;8.06;55.04
55517;BME280;41724;51.176;-0.708;2023-04-25T07:39:22;101385.89;;;8.29;54.23
55517;BME280;41724;51.176;-0.708;2023-04-25T07:41:49;101386.67;;;8.34;51.28
55517;BME280;41724;51.176;-0.708;2023-04-25T07:44:16;101395.07;;;8.20;53.50
55517;BME280;41724;51.176;-0.708;2023-04-25T07:46:44;101398.34;;;8.03;53.06
55517;BME280;41724;51.176;-0.708;2023-04-25T07:49:11;101399.36;;;7.85;53.60
55517;BME280;41724;51.176;-0.708;2023-04-25T07:51:38;101399.41;;;8.30;54.69
55517;BME280;41724;51.176;-0.708;2023-04-25T07:54:06;101402.76;;;7.99;54.98
55517;BME280;41724;51.176;-0.708;2023-04-25T07:56:33;101408.12;;;8.39;55.71
55517;BME280;41724;51.176;-0.708;2023-04-25T07:59:00;101410.96;;;7.76;57.11
55517;BME280;41724;51.176;-0.708;2023-04-25T08:01:27;101415.13;;;7.40;56.39
55517;BME280;41724;51.176;-0.708;2023-04-25T08:03:56;101413.41;;;7.79;57.71
55517;BME280;41724;51.176;-0.708;2023-04-25T08:06:22;101416.62;;;8.46;56.20
55517;BME280;41724;51.176;-0.708;2023-04-25T08:08:50;101414.18;;;7.94;57.03
55517;BME280;41724;51.176;-0.708;2023-04-25T08:11:17;101415.07;;;7.20;60.10
55517;BME280;41724;51.176;-0.708;2023-04-25T08:13:44;101406.11;;;7.96;57.27
55517;BME280;41724;51.176;-0.708;2023-04-25T08:16:11;101407.62;;;8.57;56.19
55517;BME280;41724;51.176;-0.708;2023-04-25T08:18:38;101404.96;;;8.02;56.28
55517;BME280;41724;51.176;-0.708;2023-04-25T08:21:05;101412.44;;;6.57;59.77
55517;BME280;41724;51.176;-0.708;2023-04-25T08:23:32;101413.48;;;7.10;61.51
55517;BME280;41724;51.176;-0.708;2023-04-25T08:26:00;101413.30;;;7.48;58.57
55517;BME280;41724;51.176;-0.708;2023-04-25T08:28:27;101413.24;;;8.50;58.31
55517;BME280;41724;51.176;-0.708;2023-04-25T08:30:54;101413.99;;;8.65;54.65
55517;BME280;41724;51.176;-0.708;2023-04-25T08:33:21;101415.20;;;8.29;54.21
55517;BME280;41724;51.176;-0.708;2023-04-25T08:35:49;101411.49;;;9.10;51.57
55517;BME280;41724;51.176;-0.708;2023-04-25T08:38:16;101413.85;;;8.92;53.41
55517;BME280;41724;51.176;-0.708;2023-04-25T08:40:44;101419.19;;;8.69;52.34
55517;BME280;41724;51.176;-0.708;2023-04-25T08:43:15;101416.74;;;8.65;52.47
55517;BME280;41724;51.176;-0.708;2023-04-25T08:45:45;101414.06;;;9.12;54.00
55517;BME280;41724;51.176;-0.708;2023-04-25T08:48:12;101418.02;;;8.61;53.35
55517;BME280;41724;51.176;-0.708;2023-04-25T08:50:40;101415.06;;;8.80;52.67
55517;BME280;41724;51.176;-0.708;2023-04-25T08:53:12;101412.04;;;8.99;53.91
55517;BME280;41724;51.176;-0.708;2023-04-25T08:55:41;101414.50;;;8.08;50.91
55517;BME280;41724;51.176;-0.708;2023-04-25T08:58:09;101415.84;;;8.14;54.35
55517;BME280;41724;51.176;-0.708;2023-04-25T09:00:37;101417.02;;;8.10;54.56
55517;BME280;41724;51.176;-0.708;2023-04-25T09:03:04;101414.78;;;9.30;54.16
55517;BME280;41724;51.176;-0.708;2023-04-25T09:05:32;101414.23;;;8.98;50.36
55517;BME280;41724;51.176;-0.708;2023-04-25T09:08:00;101414.67;;;9.25;51.91
55517;BME280;41724;51.176;-0.708;2023-04-25T09:10:28;101421.86;;;8.00;50.64
55517;BME280;41724;51.176;-0.708;2023-04-25T09:13:03;101421.98;;;8.86;51.80
55517;BME280;41724;51.176;-0.708;2023-04-25T09:15:31;101420.94;;;8.76;52.52
55517;BME280;41724;51.176;-0.708;2023-04-25T09:17:59;101421.67;;;8.06;49.82
55517;BME280;41724;51.176;-0.708;2023-04-25T09:20:27;101422.11;;;9.32;48.41
55517;BME280;41724;51.176;-0.708;2023-04-25T09:23:03;101417.40;;;9.59;49.89
55517;BME280;41724;51.176;-0.708;2023-04-25T09:25:34;101421.02;;;9.06;45.50
55517;BME280;41724;51.176;-0.708;2023-04-25T09:28:04;101414.73;;;9.40;46.21
55517;BME280;41724;51.176;-0.708;2023-04-25T09:30:34;101413.37;;;9.88;44.99
55517;BME280;41724;51.176;-0.708;2023-04-25T09:33:05;101413.90;;;10.65;44.30
55517;BME280;41724;51.176;-0.708;2023-04-25T09:35:36;101411.04;;;9.33;44.31
55517;BME280;41724;51.176;-0.708;2023-04-25T09:38:08;101415.44;;;10.41;45.67
55517;BME280;41724;51.176;-0.708;2023-04-25T09:40:39;101416.67;;;10.44;41.33
55517;BME280;41724;51.176;-0.708;2023-04-25T09:43:10;101411.81;;;10.61;45.89
55517;BME280;41724;51.176;-0.708;2023-04-25T09:45:47;101410.37;;;9.87;47.23
55517;BME280;41724;51.176;-0.708;2023-04-25T09:48:19;101411.31;;;10.50;45.60
55517;BME280;41724;51.176;-0.708;2023-04-25T09:51:04;101412.00;;;10.88;43.46
55517;BME280;41724;51.176;-0.708;2023-04-25T09:53:30;101411.03;;;11.43;41.21
55517;BME280;41724;51.176;-0.708;2023-04-25T09:56:00;101409.63;;;11.41;39.36
55517;BME280;41724;51.176;-0.708;2023-04-25T09:58:31;101408.59;;;11.24;41.03
55517;BME280;41724;51.176;-0.708;2023-04-25T10:01:00;101409.82;;;11.52;40.29
55517;BME280;41724;51.176;-0.708;2023-04-25T10:03:29;101410.88;;;10.97;42.29
55517;BME280;41724;51.176;-0.708;2023-04-25T10:05:59;101405.32;;;11.04;41.44
55517;BME280;41724;51.176;-0.708;2023-04-25T10:08:33;101405.89;;;9.38;38.88
55517;BME280;41724;51.176;-0.708;2023-04-25T10:11:02;101406.42;;;9.52;40.26
55517;BME280;41724;51.176;-0.708;2023-04-25T10:13:30;101404.63;;;9.76;43.45
55517;BME280;41724;51.176;-0.708;2023-04-25T10:15:58;101408.56;;;9.79;41.88
55517;BME280;41724;51.176;-0.708;2023-04-25T10:18:27;101407.66;;;9.30;41.66
55517;BME280;41724;51.176;-0.708;2023-04-25T10:20:56;101408.03;;;9.58;43.06
55517;BME280;41724;51.176;-0.708;2023-04-25T10:23:24;101406.95;;;10.67;42.00
55517;BME280;41724;51.176;-0.708;2023-04-25T10:25:52;101403.92;;;9.98;42.90
55517;BME280;41724;51.176;-0.708;2023-04-25T10:28:21;101405.42;;;9.96;45.11
55517;BME280;41724;51.176;-0.708;2023-04-25T10:30:58;101408.54;;;9.19;41.67
55517;BME280;41724;51.176;-0.708;2023-04-25T10:33:35;101408.40;;;9.51;42.70
55517;BME280;41724;51.176;-0.708;2023-04-25T10:36:09;101408.04;;;9.47;43.09
55517;BME280;41724;51.176;-0.708;2023-04-25T10:38:37;101401.57;;;10.34;43.76
55517;BME280;41724;51.176;-0.708;2023-04-25T10:41:05;101403.01;;;10.32;42.77
55517;BME280;41724;51.176;-0.708;2023-04-25T10:43:34;101407.17;;;10.96;43.72
55517;BME280;41724;51.176;-0.708;2023-04-25T10:46:02;101405.72;;;10.86;40.17
55517;BME280;41724;51.176;-0.708;2023-04-25T10:48:30;101396.58;;;11.32;40.75
55517;BME280;41724;51.176;-0.708;2023-04-25T10:51:17;101393.09;;;11.19;42.59
55517;BME280;41724;51.176;-0.708;2023-04-25T10:53:44;101403.15;;;11.61;41.98
55517;BME280;41724;51.176;-0.708;2023-04-25T10:56:16;101407.80;;;11.97;38.39
55517;BME280;41724;51.176;-0.708;2023-04-25T10:58:43;101400.77;;;12.19;40.04
55517;BME280;41724;51.176;-0.708;2023-04-25T11:01:13;101399.93;;;12.91;37.93
55517;BME280;41724;51.176;-0.708;2023-04-25T11:03:42;101401.89;;;12.53;39.43
55517;BME280;41724;51.176;-0.708;2023-04-25T11:06:20;101396.63;;;13.29;36.92
55517;BME280;41724;51.176;-0.708;2023-04-25T11:08:51;101391.47;;;13.45;34.83
55517;BME280;41724;51.176;-0.708;2023-04-25T11:11:19;101389.69;;;13.65;36.01
55517;BME280;41724;51.176;-0.708;2023-04-25T11:13:48;101387.01;;;13.38;36.57
55517;BME280;41724;51.176;-0.708;2023-04-25T11:16:17;101390.87;;;12.68;36.09
55517;BME280;41724;51.176;-0.708;2023-04-25T11:18:45;101393.28;;;12.44;35.88
55517;BME280;41724;51.176;-0.708;2023-04-25T11:21:13;101407.12;;;13.08;38.76
55517;BME280;41724;51.176;-0.708;2023-04-25T11:23:40;101401.92;;;13.09;35.76
55517;BME280;41724;51.176;-0.708;2023-04-25T11:26:07;101394.43;;;13.11;34.09
55517;BME280;41724;51.176;-0.708;2023-04-25T11:28:34;101402.00;;;13.04;39.07
55517;BME280;41724;51.176;-0.708;2023-04-25T11:31:02;101399.56;;;13.47;36.60
55517;BME280;41724;51.176;-0.708;2023-04-25T11:33:30;101399.94;;;13.11;35.12
55517;BME280;41724;51.176;-0.708;2023-04-25T11:35:58;101397.78;;;12.20;33.63
55517;BME280;41724;51.176;-0.708;2023-04-25T11:38:25;101391.59;;;13.14;35.66
55517;BME280;41724;51.176;-0.708;2023-04-25T11:40:53;101402.12;;;14.09;35.30
55517;BME280;41724;51.176;-0.708;2023-04-25T11:43:21;101398.04;;;14.39;31.73
55517;BME280;41724;51.176;-0.708;2023-04-25T11:45:49;101397.38;;;14.88;36.57
55517;BME280;41724;51.176;-0.708;2023-04-25T11:48:16;101399.42;;;15.36;33.38
55517;BME280;41724;51.176;-0.708;2023-04-25T11:50:43;101399.32;;;16.11;31.76
55517;BME280;41724;51.176;-0.708;2023-04-25T11:53:10;101396.19;;;15.63;33.72
55517;BME280;41724;51.176;-0.708;2023-04-25T11:55:37;101390.56;;;16.18;29.64
55517;BME280;41724;51.176;-0.708;2023-04-25T11:58:05;101395.42;;;16.02;32.14
55517;BME280;41724;51.176;-0.708;2023-04-25T12:00:32;101392.03;;;16.51;29.05
55517;BME280;41724;51.176;-0.708;2023-04-25T12:02:59;101396.09;;;15.84;29.11
55517;BME280;41724;51.176;-0.708;2023-04-25T12:05:27;101397.84;;;13.56;29.92
55517;BME280;41724;51.176;-0.708;2023-04-25T12:07:54;101399.20;;;13.00;30.35
55517;BME280;41724;51.176;-0.708;2023-04-25T12:10:21;101402.23;;;13.01;28.96
55517;BME280;41724;51.176;-0.708;2023-04-25T12:12:50;101401.85;;;14.32;33.69
55517;BME280;41724;51.176;-0.708;2023-04-25T12:15:24;101397.42;;;15.78;30.72
55517;BME280;41724;51.176;-0.708;2023-04-25T12:17:52;101397.64;;;16.23;30.76
55517;BME280;41724;51.176;-0.708;2023-04-25T12:20:21;101392.97;;;16.29;29.02
55517;BME280;41724;51.176;-0.708;2023-04-25T12:22:51;101400.74;;;16.20;29.21
55517;BME280;41724;51.176;-0.708;2023-04-25T12:25:36;101403.35;;;16.41;28.37
55517;BME280;41724;51.176;-0.708;2023-04-25T12:28:12;101405.39;;;16.59;28.69
55517;BME280;41724;51.176;-0.708;2023-04-25T12:30:57;101405.46;;;16.65;28.76
55517;BME280;41724;51.176;-0.708;2023-04-25T12:33:25;101403.62;;;16.56;27.74
55517;BME280;41724;51.176;-0.708;2023-04-25T12:35:52;101403.41;;;17.08;28.28
55517;BME280;41724;51.176;-0.708;2023-04-25T12:38:22;101409.37;;;16.36;28.99
55517;BME280;41724;51.176;-0.708;2023-04-25T12:40:50;101405.86;;;16.86;30.43
55517;BME280;41724;51.176;-0.708;2023-04-25T12:43:17;101402.98;;;17.14;24.86
55517;BME280;41724;51.176;-0.708;2023-04-25T12:45:44;101402.87;;;16.54;25.88
55517;BME280;41724;51.176;-0.708;2023-04-25T12:48:11;101415.45;;;16.16;28.93
55517;BME280;41724;51.176;-0.708;2023-04-25T12:50:38;101415.21;;;18.03;30.26
55517;BME280;41724;51.176;-0.708;2023-04-25T12:53:05;101415.15;;;18.05;28.18